sensor_id;sensor_type;location;lat;lon;timestamp;noise_LAeq;noise_LA_min;noise_LA_max;noise_LA01;noise_LA95
72978;Laerm;61167;55.884;37.524;2023-12-20T00:00:30;49.21;45.18;54.56;;
72978;Laerm;61167;55.884;37.524;2023-12-20T00:01:31;49.77;46.39;56.73;;
72978;Laerm;61167;55.884;37.524;2023-12-20T00:02:31;51.79;47.19;58.60;;
72978;Laerm;61167;55.884;37.524;2023-12-20T00:03:31;50.40;46.60;69.41;;
72978;Laerm;61167;55.884;37.524;2023-12-20T00:04:32;49.96;46.90;62.10;;
72978;Laerm;61167;55.884;37.524;2023-12-20T00:05:32;49.71;45.95;65.37;;
72978;Laerm;61167;55.884;37.524;2023-12-20T00:06:33;51.28;45.95;68.43;;
72978;Laerm;61167;55.884;37.524;2023-12-20T00:07:34;49.63;46.53;61.42;;
72978;Laerm;61167;55.884;37.524;2023-12-20T00:08:34;50.16;46.60;59.67;;
72978;Laerm;61167;55.884;37.524;2023-12-20T00:09:35;51.26;46.03;69.06;;
72978;Laerm;61167;55.884;37.524;2023-12-20T00:10:35;54.15;47.94;74.88;;
72978;Laerm;61167;55.884;37.524;2023-12-20T00:11:35;51.19;47.03;66.80;;
72978;Laerm;61167;55.884;37.524;2023-12-20T00:12:36;53.49;47.75;71.00;;
72978;Laerm;61167;55.884;37.524;2023-12-20T00:13:36;59.03;48.46;81.44;;
72978;Laerm;61167;55.884;37.524;2023-12-20T00:14:36;52.47;47.20;67.08;;
72978;Laerm;61167;55.884;37.524;2023-12-20T00:15:37;50.46;47.12;60.88;;
72978;Laerm;61167;55.884;37.524;2023-12-20T00:16:37;49.03;46.09;56.78;;
72978;Laerm;61167;55.884;37.524;2023-12-20T00:17:37;52.42;46.54;67.53;;
72978;Laerm;61167;55.884;37.524;2023-12-20T00:18:38;50.11;46.68;66.56;;
72978;Laerm;61167;55.884;37.524;2023-12-20T00:19:38;52.34;47.01;66.17;;
72978;Laerm;61167;55.884;37.524;2023-12-20T00:20:38;51.97;45.62;72.38;;
72978;Laerm;61167;55.884;37.524;2023-12-20T00:21:39;50.06;46.60;54.64;;
72978;Laerm;61167;55.884;37.524;2023-12-20T00:22:39;51.28;46.76;70.83;;
72978;Laerm;61167;55.884;37.524;2023-12-20T00:23:40;50.77;46.82;58.29;;
72978;Laerm;61167;55.884;37.524;2023-12-20T00:24:40;61.39;49.73;71.34;;
72978;Laerm;61167;55.884;37.524;2023-12-20T00:25:40;61.64;58.37;64.64;;
72978;Laerm;61167;55.884;37.524;2023-12-20T00:26:41;62.15;51.31;84.34;;
72978;Laerm;61167;55.884;37.524;2023-12-20T00:27:41;53.00;47.03;67.50;;
72978;Laerm;61167;55.884;37.524;2023-12-20T00:28:42;58.99;47.01;87.89;;
72978;Laerm;61167;55.884;37.524;2023-12-20T00:29:42;51.10;46.15;67.32;;
72978;Laerm;61167;55.884;37.524;2023-12-20T00:30:47;54.93;47.93;79.15;;
72978;Laerm;61167;55.884;37.524;2023-12-20T00:31:48;55.43;46.61;77.45;;
72978;Laerm;61167;55.884;37.524;2023-12-20T00:32:48;53.53;46.87;72.15;;
72978;Laerm;61167;55.884;37.524;2023-12-20T00:33:48;51.24;47.13;59.08;;
72978;Laerm;61167;55.884;37.524;2023-12-20T00:34:49;52.36;47.52;62.87;;
72978;Laerm;61167;55.884;37.524;2023-12-20T00:35:49;50.74;46.67;68.68;;
72978;Laerm;61167;55.884;37.524;2023-12-20T00:36:49;51.13;46.53;67.81;;
72978;Laerm;61167;55.884;37.524;2023-12-20T00:37:50;49.82;46.13;55.79;;
72978;Laerm;61167;55.884;37.524;2023-12-20T00:38:50;49.73;46.38;63.59;;
72978;Laerm;61167;55.884;37.524;2023-12-20T00:39:52;54.05;46.51;70.25;;
72978;Laerm;61167;55.884;37.524;2023-12-20T00:40:53;50.53;46.24;69.08;;
72978;Laerm;61167;55.884;37.524;2023-12-20T00:41:53;49.81;46.25;56.31;;
72978;Laerm;61167;55.884;37.524;2023-12-20T00:42:54;48.64;45.68;53.54;;
72978;Laerm;61167;55.884;37.524;2023-12-20T00:43:54;49.23;45.70;56.77;;
72978;Laerm;61167;55.884;37.524;2023-12-20T00:44:54;49.85;46.05;58.99;;
72978;Laerm;61167;55.884;37.524;2023-12-20T00:45:55;49.78;45.74;63.88;;
72978;Laerm;61167;55.884;37.524;2023-12-20T00:46:55;53.72;45.73;79.64;;
72978;Laerm;61167;55.884;37.524;2023-12-20T00:47:56;49.10;45.48;62.76;;
72978;Laerm;61167;55.884;37.524;2023-12-20T00:48:56;49.59;45.16;65.00;;
72978;Laerm;61167;55.884;37.524;2023-12-20T00:49:57;50.46;47.13;55.92;;
72978;Laerm;61167;55.884;37.524;2023-12-20T00:50:57;50.23;46.88;53.90;;
72978;Laerm;61167;55.884;37.524;2023-12-20T00:51:58;49.58;45.87;59.19;;
72978;Laerm;61167;55.884;37.524;2023-12-20T00:52:58;62.05;46.81;86.17;;
72978;Laerm;61167;55.884;37.524;2023-12-20T00:53:58;51.40;46.66;70.05;;
72978;Laerm;61167;55.884;37.524;2023-12-20T00:54:59;52.94;47.01;64.65;;
72978;Laerm;61167;55.884;37.524;2023-12-20T00:55:59;54.38;48.00;79.17;;
72978;Laerm;61167;55.884;37.524;2023-12-20T00:56:59;49.76;46.05;65.20;;
72978;Laerm;61167;55.884;37.524;2023-12-20T00:58:00;56.71;48.21;76.38;;
72978;Laerm;61167;55.884;37.524;2023-12-20T00:59:00;58.07;49.09;75.84;;
72978;Laerm;61167;55.884;37.524;2023-12-20T01:00:00;51.95;46.80;71.21;;
72978;Laerm;61167;55.884;37.524;2023-12-20T01:01:01;52.70;46.98;66.23;;
72978;Laerm;61167;55.884;37.524;2023-12-20T01:02:01;59.70;50.22;76.79;;
72978;Laerm;61167;55.884;37.524;2023-12-20T01:03:02;50.38;46.66;56.97;;
72978;Laerm;61167;55.884;37.524;2023-12-20T01:04:02;60.21;47.10;81.71;;
72978;Laerm;61167;55.884;37.524;2023-12-20T01:05:08;65.17;48.36;85.41;;
72978;Laerm;61167;55.884;37.524;2023-12-20T01:06:09;50.99;46.17;60.43;;
72978;Laerm;61167;55.884;37.524;2023-12-20T01:07:09;61.59;46.53;72.78;;
72978;Laerm;61167;55.884;37.524;2023-12-20T01:08:10;50.27;47.01;57.02;;
72978;Laerm;61167;55.884;37.524;2023-12-20T01:09:10;49.75;45.23;63.80;;
72978;Laerm;61167;55.884;37.524;2023-12-20T01:10:10;51.32;45.88;75.70;;
72978;Laerm;61167;55.884;37.524;2023-12-20T01:11:11;49.39;45.86;59.80;;
72978;Laerm;61167;55.884;37.524;2023-12-20T01:12:11;49.59;45.17;56.45;;
72978;Laerm;61167;55.884;37.524;2023-12-20T01:13:11;50.12;46.49;55.35;;
72978;Laerm;61167;55.884;37.524;2023-12-20T01:14:12;50.65;46.66;63.85;;
72978;Laerm;61167;55.884;37.524;2023-12-20T01:15:12;51.21;47.60;65.13;;
72978;Laerm;61167;55.884;37.524;2023-12-20T01:16:13;51.70;46.58;70.74;;
72978;Laerm;61167;55.884;37.524;2023-12-20T01:17:13;53.73;46.26;75.91;;
72978;Laerm;61167;55.884;37.524;2023-12-20T01:18:14;50.19;46.81;65.57;;
72978;Laerm;61167;55.884;37.524;2023-12-20T01:19:14;50.27;47.39;54.42;;
72978;Laerm;61167;55.884;37.524;2023-12-20T01:20:14;52.49;47.19;68.91;;
72978;Laerm;61167;55.884;37.524;2023-12-20T01:21:20;51.64;47.46;71.77;;
72978;Laerm;61167;55.884;37.524;2023-12-20T01:22:20;50.41;46.33;68.96;;
72978;Laerm;61167;55.884;37.524;2023-12-20T01:23:20;50.14;45.97;65.51;;
72978;Laerm;61167;55.884;37.524;2023-12-20T01:24:21;49.33;46.39;58.37;;
72978;Laerm;61167;55.884;37.524;2023-12-20T01:25:21;53.45;47.36;63.76;;
72978;Laerm;61167;55.884;37.524;2023-12-20T01:26:21;50.16;46.48;56.61;;
72978;Laerm;61167;55.884;37.524;2023-12-20T01:27:22;54.01;47.59;67.99;;
72978;Laerm;61167;55.884;37.524;2023-12-20T01:28:24;51.14;47.39;62.69;;
72978;Laerm;61167;55.884;37.524;2023-12-20T01:29:25;53.45;46.27;80.73;;
72978;Laerm;61167;55.884;37.524;2023-12-20T01:30:25;50.58;47.13;56.44;;
72978;Laerm;61167;55.884;37.524;2023-12-20T01:31:26;50.96;45.56;67.38;;
72978;Laerm;61167;55.884;37.524;2023-12-20T01:32:27;50.10;46.43;62.02;;
72978;Laerm;61167;55.884;37.524;2023-12-20T01:33:27;49.91;46.46;55.22;;
72978;Laerm;61167;55.884;37.524;2023-12-20T01:34:27;50.95;47.90;60.91;;
72978;Laerm;61167;55.884;37.524;2023-12-20T01:35:28;51.97;47.00;73.61;;
72978;Laerm;61167;55.884;37.524;2023-12-20T01:36:33;49.93;46.97;58.26;;
72978;Laerm;61167;55.884;37.524;2023-12-20T01:37:34;57.24;45.97;86.68;;
72978;Laerm;61167;55.884;37.524;2023-12-20T01:38:34;53.22;47.05;73.38;;
72978;Laerm;61167;55.884;37.524;2023-12-20T01:39:34;50.40;46.84;61.81;;
72978;Laerm;61167;55.884;37.524;2023-12-20T01:40:35;50.46;46.90;62.34;;
72978;Laerm;61167;55.884;37.524;2023-12-20T01:41:35;51.35;46.82;70.40;;
72978;Laerm;61167;55.884;37.524;2023-12-20T01:42:35;54.96;47.92;68.15;;
72978;Laerm;61167;55.884;37.524;2023-12-20T01:43:36;50.79;46.54;59.40;;
72978;Laerm;61167;55.884;37.524;2023-12-20T01:44:37;50.80;46.73;63.33;;
72978;Laerm;61167;55.884;37.524;2023-12-20T01:45:37;50.61;46.81;63.91;;
72978;Laerm;61167;55.884;37.524;2023-12-20T01:46:37;62.96;47.99;86.24;;
72978;Laerm;61167;55.884;37.524;2023-12-20T01:47:38;53.02;46.83;76.19;;
72978;Laerm;61167;55.884;37.524;2023-12-20T01:48:38;54.58;47.33;62.03;;
72978;Laerm;61167;55.884;37.524;2023-12-20T01:49:39;51.39;47.11;67.66;;
72978;Laerm;61167;55.884;37.524;2023-12-20T01:50:39;52.19;46.44;68.40;;
72978;Laerm;61167;55.884;37.524;2023-12-20T01:51:40;59.96;46.69;85.70;;
72978;Laerm;61167;55.884;37.524;2023-12-20T01:52:41;57.61;46.63;83.82;;
72978;Laerm;61167;55.884;37.524;2023-12-20T01:53:48;52.21;46.66;75.66;;
72978;Laerm;61167;55.884;37.524;2023-12-20T01:54:49;51.44;46.06;72.36;;
72978;Laerm;61167;55.884;37.524;2023-12-20T01:55:50;52.95;45.40;74.50;;
72978;Laerm;61167;55.884;37.524;2023-12-20T01:56:52;53.86;47.43;76.92;;
72978;Laerm;61167;55.884;37.524;2023-12-20T01:57:52;54.63;46.87;77.76;;
72978;Laerm;61167;55.884;37.524;2023-12-20T01:58:53;65.08;46.49;88.45;;
72978;Laerm;61167;55.884;37.524;2023-12-20T01:59:53;55.37;46.08;80.77;;
72978;Laerm;61167;55.884;37.524;2023-12-20T02:00:54;51.89;46.18;59.86;;
72978;Laerm;61167;55.884;37.524;2023-12-20T02:01:54;50.15;46.75;56.09;;
72978;Laerm;61167;55.884;37.524;2023-12-20T02:02:55;51.02;47.40;55.85;;
72978;Laerm;61167;55.884;37.524;2023-12-20T02:03:55;63.51;46.82;86.67;;
72978;Laerm;61167;55.884;37.524;2023-12-20T02:04:56;54.60;47.33;74.28;;
72978;Laerm;61167;55.884;37.524;2023-12-20T02:05:59;50.91;47.25;56.05;;
72978;Laerm;61167;55.884;37.524;2023-12-20T02:06:59;56.18;48.17;77.71;;
72978;Laerm;61167;55.884;37.524;2023-12-20T02:08:00;53.26;47.55;67.67;;
72978;Laerm;61167;55.884;37.524;2023-12-20T02:09:00;55.25;47.15;81.86;;
72978;Laerm;61167;55.884;37.524;2023-12-20T02:10:01;72.52;47.17;95.09;;
72978;Laerm;61167;55.884;37.524;2023-12-20T02:11:02;55.16;47.71;73.00;;
72978;Laerm;61167;55.884;37.524;2023-12-20T02:12:02;53.78;47.19;76.59;;
72978;Laerm;61167;55.884;37.524;2023-12-20T02:13:03;52.53;46.44;71.94;;
72978;Laerm;61167;55.884;37.524;2023-12-20T02:14:04;52.83;47.70;71.10;;
72978;Laerm;61167;55.884;37.524;2023-12-20T02:15:05;55.11;47.52;79.34;;
72978;Laerm;61167;55.884;37.524;2023-12-20T02:16:05;55.79;47.36;75.11;;
72978;Laerm;61167;55.884;37.524;2023-12-20T02:17:07;53.25;47.60;69.19;;
72978;Laerm;61167;55.884;37.524;2023-12-20T02:18:07;60.89;47.61;85.61;;
72978;Laerm;61167;55.884;37.524;2023-12-20T02:19:10;57.89;46.97;78.37;;
72978;Laerm;61167;55.884;37.524;2023-12-20T02:20:13;53.08;47.52;74.27;;
72978;Laerm;61167;55.884;37.524;2023-12-20T02:21:13;53.14;47.53;75.19;;
72978;Laerm;61167;55.884;37.524;2023-12-20T02:22:14;62.52;46.54;89.29;;
72978;Laerm;61167;55.884;37.524;2023-12-20T02:23:15;52.54;47.57;66.01;;
72978;Laerm;61167;55.884;37.524;2023-12-20T02:24:15;52.08;48.46;68.48;;
72978;Laerm;61167;55.884;37.524;2023-12-20T02:25:17;51.85;47.79;69.00;;
72978;Laerm;61167;55.884;37.524;2023-12-20T02:26:17;51.44;48.25;63.43;;
72978;Laerm;61167;55.884;37.524;2023-12-20T02:27:18;51.93;48.05;66.33;;
72978;Laerm;61167;55.884;37.524;2023-12-20T02:28:19;53.58;48.10;67.94;;
72978;Laerm;61167;55.884;37.524;2023-12-20T02:29:23;52.10;48.04;69.18;;
72978;Laerm;61167;55.884;37.524;2023-12-20T02:30:24;50.89;47.18;61.11;;
72978;Laerm;61167;55.884;37.524;2023-12-20T02:31:24;54.16;47.12;77.86;;
72978;Laerm;61167;55.884;37.524;2023-12-20T02:32:24;52.97;48.16;74.37;;
72978;Laerm;61167;55.884;37.524;2023-12-20T02:33:27;54.62;48.16;69.59;;
72978;Laerm;61167;55.884;37.524;2023-12-20T02:34:28;53.25;47.12;70.35;;
72978;Laerm;61167;55.884;37.524;2023-12-20T02:35:30;50.88;47.60;64.18;;
72978;Laerm;61167;55.884;37.524;2023-12-20T02:36:31;53.70;47.80;77.38;;
72978;Laerm;61167;55.884;37.524;2023-12-20T02:37:32;51.48;48.08;62.24;;
72978;Laerm;61167;55.884;37.524;2023-12-20T02:38:33;50.85;47.58;55.73;;
72978;Laerm;61167;55.884;37.524;2023-12-20T02:39:34;50.67;47.36;68.94;;
72978;Laerm;61167;55.884;37.524;2023-12-20T02:40:34;56.56;47.85;79.38;;
72978;Laerm;61167;55.884;37.524;2023-12-20T02:41:34;52.24;46.98;65.77;;
72978;Laerm;61167;55.884;37.524;2023-12-20T02:42:35;58.53;48.32;79.39;;
72978;Laerm;61167;55.884;37.524;2023-12-20T02:43:35;50.91;47.84;59.44;;
72978;Laerm;61167;55.884;37.524;2023-12-20T02:44:36;51.76;46.82;67.69;;
72978;Laerm;61167;55.884;37.524;2023-12-20T02:45:36;53.17;48.36;68.73;;
72978;Laerm;61167;55.884;37.524;2023-12-20T02:46:37;51.57;48.28;58.03;;
72978;Laerm;61167;55.884;37.524;2023-12-20T02:47:37;52.25;48.27;63.87;;
72978;Laerm;61167;55.884;37.524;2023-12-20T02:48:40;56.75;49.97;76.90;;
72978;Laerm;61167;55.884;37.524;2023-12-20T02:49:41;56.54;48.57;79.67;;
72978;Laerm;61167;55.884;37.524;2023-12-20T02:50:42;53.06;48.99;62.29;;
72978;Laerm;61167;55.884;37.524;2023-12-20T02:51:42;53.92;48.46;71.63;;
72978;Laerm;61167;55.884;37.524;2023-12-20T02:52:44;52.09;47.74;71.80;;
72978;Laerm;61167;55.884;37.524;2023-12-20T02:53:44;52.78;47.66;70.68;;
72978;Laerm;61167;55.884;37.524;2023-12-20T02:54:47;55.92;48.37;82.56;;
72978;Laerm;61167;55.884;37.524;2023-12-20T02:55:47;54.72;47.64;77.38;;
72978;Laerm;61167;55.884;37.524;2023-12-20T02:56:48;52.19;47.92;64.54;;
72978;Laerm;61167;55.884;37.524;2023-12-20T02:57:48;52.31;47.66;66.33;;
72978;Laerm;61167;55.884;37.524;2023-12-20T02:58:48;59.91;48.38;79.81;;
72978;Laerm;61167;55.884;37.524;2023-12-20T02:59:49;53.23;48.50;67.49;;
72978;Laerm;61167;55.884;37.524;2023-12-20T03:00:49;52.88;47.61;68.78;;
72978;Laerm;61167;55.884;37.524;2023-12-20T03:01:49;61.43;48.05;85.31;;
72978;Laerm;61167;55.884;37.524;2023-12-20T03:02:51;57.21;49.24;81.08;;
72978;Laerm;61167;55.884;37.524;2023-12-20T03:03:51;54.43;48.70;72.63;;
72978;Laerm;61167;55.884;37.524;2023-12-20T03:04:51;53.77;48.57;64.94;;
72978;Laerm;61167;55.884;37.524;2023-12-20T03:05:52;55.44;48.26;77.46;;
72978;Laerm;61167;55.884;37.524;2023-12-20T03:06:52;55.52;48.40;76.81;;
72978;Laerm;61167;55.884;37.524;2023-12-20T03:07:52;57.51;47.94;84.46;;
72978;Laerm;61167;55.884;37.524;2023-12-20T03:08:53;55.31;49.00;72.85;;
72978;Laerm;61167;55.884;37.524;2023-12-20T03:09:53;53.10;48.50;69.57;;
72978;Laerm;61167;55.884;37.524;2023-12-20T03:10:53;52.21;48.83;66.04;;
72978;Laerm;61167;55.884;37.524;2023-12-20T03:11:53;54.21;49.53;69.81;;
72978;Laerm;61167;55.884;37.524;2023-12-20T03:12:54;51.19;48.23;61.49;;
72978;Laerm;61167;55.884;37.524;2023-12-20T03:13:54;59.18;48.49;85.84;;
72978;Laerm;61167;55.884;37.524;2023-12-20T03:14:55;51.69;48.66;66.33;;
72978;Laerm;61167;55.884;37.524;2023-12-20T03:15:55;50.38;47.86;53.62;;
72978;Laerm;61167;55.884;37.524;2023-12-20T03:16:55;51.48;48.99;56.84;;
72978;Laerm;61167;55.884;37.524;2023-12-20T03:17:56;52.09;49.05;59.60;;
72978;Laerm;61167;55.884;37.524;2023-12-20T03:18:56;54.84;49.29;75.19;;
72978;Laerm;61167;55.884;37.524;2023-12-20T03:19:56;52.36;48.94;67.88;;
72978;Laerm;61167;55.884;37.524;2023-12-20T03:20:57;53.67;49.01;79.64;;
72978;Laerm;61167;55.884;37.524;2023-12-20T03:21:57;53.59;49.53;71.81;;
72978;Laerm;61167;55.884;37.524;2023-12-20T03:23:00;54.14;50.19;72.76;;
72978;Laerm;61167;55.884;37.524;2023-12-20T03:24:01;53.46;49.44;70.17;;
72978;Laerm;61167;55.884;37.524;2023-12-20T03:25:01;54.81;49.31;76.60;;
72978;Laerm;61167;55.884;37.524;2023-12-20T03:26:02;53.36;50.15;61.50;;
72978;Laerm;61167;55.884;37.524;2023-12-20T03:27:02;56.42;49.77;71.25;;
72978;Laerm;61167;55.884;37.524;2023-12-20T03:28:02;53.55;50.53;65.57;;
72978;Laerm;61167;55.884;37.524;2023-12-20T03:29:03;53.05;49.41;61.06;;
72978;Laerm;61167;55.884;37.524;2023-12-20T03:30:04;56.06;49.58;75.54;;
72978;Laerm;61167;55.884;37.524;2023-12-20T03:31:04;54.58;50.81;66.92;;
72978;Laerm;61167;55.884;37.524;2023-12-20T03:32:05;54.72;50.47;70.25;;
72978;Laerm;61167;55.884;37.524;2023-12-20T03:33:05;53.18;50.13;62.81;;
72978;Laerm;61167;55.884;37.524;2023-12-20T03:34:07;54.61;50.57;70.37;;
72978;Laerm;61167;55.884;37.524;2023-12-20T03:35:08;53.67;50.38;64.00;;
72978;Laerm;61167;55.884;37.524;2023-12-20T03:36:08;65.69;50.31;89.09;;
72978;Laerm;61167;55.884;37.524;2023-12-20T03:37:08;54.11;49.96;64.94;;
72978;Laerm;61167;55.884;37.524;2023-12-20T03:38:09;54.22;50.24;67.66;;
72978;Laerm;61167;55.884;37.524;2023-12-20T03:39:09;53.77;49.56;76.37;;
72978;Laerm;61167;55.884;37.524;2023-12-20T03:40:10;58.05;49.56;82.33;;
72978;Laerm;61167;55.884;37.524;2023-12-20T03:41:11;58.50;49.65;83.68;;
72978;Laerm;61167;55.884;37.524;2023-12-20T03:42:11;55.55;50.75;74.53;;
72978;Laerm;61167;55.884;37.524;2023-12-20T03:43:13;55.53;50.60;74.47;;
72978;Laerm;61167;55.884;37.524;2023-12-20T03:44:13;52.88;49.52;59.99;;
72978;Laerm;61167;55.884;37.524;2023-12-20T03:45:13;53.25;49.55;65.22;;
72978;Laerm;61167;55.884;37.524;2023-12-20T03:46:14;65.98;51.20;89.32;;
72978;Laerm;61167;55.884;37.524;2023-12-20T03:47:14;55.67;50.51;75.11;;
72978;Laerm;61167;55.884;37.524;2023-12-20T03:48:15;56.34;50.54;69.06;;
72978;Laerm;61167;55.884;37.524;2023-12-20T03:49:15;56.99;50.56;74.56;;
72978;Laerm;61167;55.884;37.524;2023-12-20T03:50:15;56.41;51.40;73.33;;
72978;Laerm;61167;55.884;37.524;2023-12-20T03:51:16;56.05;51.67;69.10;;
72978;Laerm;61167;55.884;37.524;2023-12-20T03:52:16;53.98;50.50;68.31;;
72978;Laerm;61167;55.884;37.524;2023-12-20T03:53:16;54.43;50.87;69.31;;
72978;Laerm;61167;55.884;37.524;2023-12-20T03:54:17;58.61;50.68;74.95;;
72978;Laerm;61167;55.884;37.524;2023-12-20T03:55:17;56.04;50.84;71.42;;
72978;Laerm;61167;55.884;37.524;2023-12-20T03:56:18;55.94;51.77;76.18;;
72978;Laerm;61167;55.884;37.524;2023-12-20T03:57:18;56.46;51.34;66.68;;
72978;Laerm;61167;55.884;37.524;2023-12-20T03:58:18;55.58;50.53;82.38;;
72978;Laerm;61167;55.884;37.524;2023-12-20T03:59:19;58.64;51.00;86.57;;
72978;Laerm;61167;55.884;37.524;2023-12-20T04:00:19;60.54;51.64;83.70;;
72978;Laerm;61167;55.884;37.524;2023-12-20T04:01:20;56.95;53.00;60.75;;
72978;Laerm;61167;55.884;37.524;2023-12-20T04:02:20;56.07;52.14;69.81;;
72978;Laerm;61167;55.884;37.524;2023-12-20T04:03:20;64.36;52.23;87.20;;
72978;Laerm;61167;55.884;37.524;2023-12-20T04:04:21;57.66;51.07;78.40;;
72978;Laerm;61167;55.884;37.524;2023-12-20T04:06:41;55.48;51.94;74.79;;
72978;Laerm;61167;55.884;37.524;2023-12-20T04:07:41;57.55;52.35;73.26;;
72978;Laerm;61167;55.884;37.524;2023-12-20T04:08:41;56.54;51.60;74.28;;
72978;Laerm;61167;55.884;37.524;2023-12-20T04:09:42;59.99;52.73;84.45;;
72978;Laerm;61167;55.884;37.524;2023-12-20T04:10:42;64.87;53.33;88.52;;
72978;Laerm;61167;55.884;37.524;2023-12-20T04:11:42;62.20;52.24;88.63;;
72978;Laerm;61167;55.884;37.524;2023-12-20T04:12:45;57.22;52.74;74.99;;
72978;Laerm;61167;55.884;37.524;2023-12-20T04:13:45;56.40;52.47;62.53;;
72978;Laerm;61167;55.884;37.524;2023-12-20T04:14:46;65.55;52.03;89.18;;
72978;Laerm;61167;55.884;37.524;2023-12-20T04:15:46;58.46;53.68;81.17;;
72978;Laerm;61167;55.884;37.524;2023-12-20T04:16:46;58.86;52.84;84.60;;
72978;Laerm;61167;55.884;37.524;2023-12-20T04:17:47;56.80;53.15;68.03;;
72978;Laerm;61167;55.884;37.524;2023-12-20T04:18:47;57.66;53.23;76.15;;
72978;Laerm;61167;55.884;37.524;2023-12-20T04:19:48;55.84;53.08;62.62;;
72978;Laerm;61167;55.884;37.524;2023-12-20T04:20:48;57.77;53.53;63.66;;
72978;Laerm;61167;55.884;37.524;2023-12-20T04:21:52;56.70;51.98;69.59;;
72978;Laerm;61167;55.884;37.524;2023-12-20T04:22:53;62.52;52.85;85.78;;
72978;Laerm;61167;55.884;37.524;2023-12-20T04:23:53;58.97;53.24;84.78;;
72978;Laerm;61167;55.884;37.524;2023-12-20T04:24:53;57.33;52.75;70.43;;
72978;Laerm;61167;55.884;37.524;2023-12-20T04:25:54;68.37;52.93;91.34;;
72978;Laerm;61167;55.884;37.524;2023-12-20T04:26:54;61.24;53.21;81.97;;
72978;Laerm;61167;55.884;37.524;2023-12-20T04:27:57;58.21;52.77;76.75;;
72978;Laerm;61167;55.884;37.524;2023-12-20T04:28:57;56.64;53.14;62.33;;
72978;Laerm;61167;55.884;37.524;2023-12-20T04:29:58;55.75;51.67;60.42;;
72978;Laerm;61167;55.884;37.524;2023-12-20T04:30:58;58.05;51.80;77.22;;
72978;Laerm;61167;55.884;37.524;2023-12-20T04:31:59;56.18;52.49;68.36;;
72978;Laerm;61167;55.884;37.524;2023-12-20T04:32:59;61.14;53.73;86.34;;
72978;Laerm;61167;55.884;37.524;2023-12-20T04:33:59;57.50;52.26;70.15;;
72978;Laerm;61167;55.884;37.524;2023-12-20T04:35:00;57.33;52.59;72.85;;
72978;Laerm;61167;55.884;37.524;2023-12-20T04:36:00;55.89;53.40;63.69;;
72978;Laerm;61167;55.884;37.524;2023-12-20T04:37:00;57.96;52.05;74.85;;
72978;Laerm;61167;55.884;37.524;2023-12-20T04:38:01;60.50;52.88;82.81;;
72978;Laerm;61167;55.884;37.524;2023-12-20T04:39:02;63.69;52.09;86.36;;
72978;Laerm;61167;55.884;37.524;2023-12-20T04:40:03;57.33;53.06;66.28;;
72978;Laerm;61167;55.884;37.524;2023-12-20T04:41:07;56.79;51.97;78.56;;
72978;Laerm;61167;55.884;37.524;2023-12-20T04:42:10;57.53;53.48;66.31;;
72978;Laerm;61167;55.884;37.524;2023-12-20T04:43:11;56.84;52.77;64.94;;
72978;Laerm;61167;55.884;37.524;2023-12-20T04:44:11;62.39;52.14;86.53;;
72978;Laerm;61167;55.884;37.524;2023-12-20T04:45:11;62.46;51.81;86.21;;
72978;Laerm;61167;55.884;37.524;2023-12-20T04:46:13;55.78;51.95;69.84;;
72978;Laerm;61167;55.884;37.524;2023-12-20T04:47:14;62.39;52.81;83.63;;
72978;Laerm;61167;55.884;37.524;2023-12-20T04:48:14;59.29;53.75;79.15;;
72978;Laerm;61167;55.884;37.524;2023-12-20T04:49:14;56.27;52.53;67.15;;
72978;Laerm;61167;55.884;37.524;2023-12-20T04:50:15;63.48;52.69;78.09;;
72978;Laerm;61167;55.884;37.524;2023-12-20T04:51:16;59.66;53.81;73.61;;
72978;Laerm;61167;55.884;37.524;2023-12-20T04:52:16;56.74;52.38;72.58;;
72978;Laerm;61167;55.884;37.524;2023-12-20T04:53:16;56.94;52.95;69.41;;
72978;Laerm;61167;55.884;37.524;2023-12-20T04:54:16;59.44;52.65;75.64;;
72978;Laerm;61167;55.884;37.524;2023-12-20T04:55:17;58.42;53.32;67.89;;
72978;Laerm;61167;55.884;37.524;2023-12-20T04:56:17;60.57;53.93;81.37;;
72978;Laerm;61167;55.884;37.524;2023-12-20T04:57:17;61.85;54.38;80.85;;
72978;Laerm;61167;55.884;37.524;2023-12-20T04:58:18;57.96;53.91;68.97;;
72978;Laerm;61167;55.884;37.524;2023-12-20T04:59:18;58.13;53.75;77.49;;
72978;Laerm;61167;55.884;37.524;2023-12-20T05:00:20;57.95;53.39;68.88;;
72978;Laerm;61167;55.884;37.524;2023-12-20T05:01:20;58.64;54.15;75.36;;
72978;Laerm;61167;55.884;37.524;2023-12-20T05:02:21;59.16;53.78;80.80;;
72978;Laerm;61167;55.884;37.524;2023-12-20T05:03:22;59.79;53.78;78.86;;
72978;Laerm;61167;55.884;37.524;2023-12-20T05:04:23;59.38;54.63;69.64;;
72978;Laerm;61167;55.884;37.524;2023-12-20T05:05:24;62.82;54.78;83.95;;
72978;Laerm;61167;55.884;37.524;2023-12-20T05:06:24;59.25;54.07;73.32;;
72978;Laerm;61167;55.884;37.524;2023-12-20T05:07:25;56.35;52.97;62.64;;
72978;Laerm;61167;55.884;37.524;2023-12-20T05:08:25;56.88;53.19;62.49;;
72978;Laerm;61167;55.884;37.524;2023-12-20T05:09:25;58.00;52.97;69.23;;
72978;Laerm;61167;55.884;37.524;2023-12-20T05:10:27;61.79;52.72;84.14;;
72978;Laerm;61167;55.884;37.524;2023-12-20T05:11:28;65.03;52.90;85.99;;
72978;Laerm;61167;55.884;37.524;2023-12-20T05:12:29;57.64;52.87;71.20;;
72978;Laerm;61167;55.884;37.524;2023-12-20T05:13:29;59.26;54.41;71.98;;
72978;Laerm;61167;55.884;37.524;2023-12-20T05:14:29;57.84;53.73;66.33;;
72978;Laerm;61167;55.884;37.524;2023-12-20T05:15:30;58.25;54.38;70.19;;
72978;Laerm;61167;55.884;37.524;2023-12-20T05:16:31;61.45;54.48;83.94;;
72978;Laerm;61167;55.884;37.524;2023-12-20T05:17:31;61.87;53.62;81.54;;
72978;Laerm;61167;55.884;37.524;2023-12-20T05:18:32;61.64;52.58;80.84;;
72978;Laerm;61167;55.884;37.524;2023-12-20T05:19:32;56.95;52.32;69.30;;
72978;Laerm;61167;55.884;37.524;2023-12-20T05:20:35;60.04;53.54;77.82;;
72978;Laerm;61167;55.884;37.524;2023-12-20T05:21:35;59.00;55.21;74.32;;
72978;Laerm;61167;55.884;37.524;2023-12-20T05:22:36;57.54;53.49;65.94;;
72978;Laerm;61167;55.884;37.524;2023-12-20T05:23:36;58.31;53.72;77.79;;
72978;Laerm;61167;55.884;37.524;2023-12-20T05:24:37;58.43;54.30;68.01;;
72978;Laerm;61167;55.884;37.524;2023-12-20T05:25:37;57.53;53.20;72.65;;
72978;Laerm;61167;55.884;37.524;2023-12-20T05:26:38;62.81;53.14;82.26;;
72978;Laerm;61167;55.884;37.524;2023-12-20T05:27:38;69.83;55.18;88.83;;
72978;Laerm;61167;55.884;37.524;2023-12-20T05:28:38;65.03;53.28;88.55;;
72978;Laerm;61167;55.884;37.524;2023-12-20T05:29:39;57.40;53.07;67.21;;
72978;Laerm;61167;55.884;37.524;2023-12-20T05:30:39;59.00;53.66;73.75;;
72978;Laerm;61167;55.884;37.524;2023-12-20T05:31:40;57.87;54.06;67.11;;
72978;Laerm;61167;55.884;37.524;2023-12-20T05:32:40;58.67;52.60;75.64;;
72978;Laerm;61167;55.884;37.524;2023-12-20T05:33:41;58.74;52.94;72.87;;
72978;Laerm;61167;55.884;37.524;2023-12-20T05:34:42;57.95;53.15;64.65;;
72978;Laerm;61167;55.884;37.524;2023-12-20T05:35:42;57.85;52.14;72.84;;